Time;durP1;ratioP1;P1;durP2;ratioP2;P2;SDS_P1;SDS_P2;PMS_P1;PMS_P2;Temp;Humidity;BMP_temperature;BMP_pressure;BME280_temperature;BME280_humidity;BME280_pressure;Samples;Min_cycle;Max_cycle;Signal;HPM_P1;HPM_P2
2022/09/28 00:00:49;;;;;;;18.90;2.55;;;15.70;99.90;;;;;;5029618;28;20048;-66
2022/09/28 00:04:11;;;;;;;18.90;2.95;;;15.60;99.90;;;;;;5029209;28;20044;-66
2022/09/28 00:07:15;;;;;;;16.08;3.15;;;15.50;99.90;;;;;;5029854;28;20057;-66
2022/09/28 00:13:42;;;;;;;20.38;3.47;;;14.20;99.90;;;;;;5032974;28;20052;-66
2022/09/28 00:16:47;;;;;;;15.60;2.78;;;15.40;99.90;;;;;;5033262;28;20048;-66
2022/09/28 00:19:51;;;;;;;18.30;3.30;;;15.30;99.90;;;;;;5033115;28;20053;-65
2022/09/28 00:22:55;;;;;;;26.00;3.50;;;15.30;99.90;;;;;;5033027;28;20041;-66
2022/09/28 00:26:18;;;;;;;19.35;3.05;;;15.30;99.90;;;;;;5033406;28;20048;-65
2022/09/28 00:29:28;;;;;;;15.27;2.90;;;15.30;99.90;;;;;;5032002;28;20053;-65
2022/09/28 00:32:50;;;;;;;15.52;2.80;;;15.30;99.90;;;;;;5032932;28;20060;-65
2022/09/28 00:35:55;;;;;;;25.92;3.75;;;15.20;99.90;;;;;;5032869;28;20040;-65
2022/09/28 00:39:06;;;;;;;10.45;2.30;;;15.10;99.90;;;;;;5033029;28;20045;-65
2022/09/28 00:42:19;;;;;;;27.35;3.17;;;15.10;99.90;;;;;;5032681;28;20044;-65
2022/09/28 00:45:25;;;;;;;25.42;2.70;;;15.40;99.90;;;;;;5032473;28;20040;-66
2022/09/28 00:48:33;;;;;;;17.70;3.83;;;15.40;99.90;;;;;;5032299;28;20041;-65
2022/09/28 00:51:42;;;;;;;19.13;2.95;;;15.30;99.90;;;;;;5031917;28;20496;-65
2022/09/28 00:55:05;;;;;;;17.33;3.58;;;15.20;99.90;;;;;;5030887;28;20396;-65
2022/09/28 00:58:33;;;;;;;23.80;3.42;;;15.20;99.90;;;;;;5031978;28;20049;-65
2022/09/28 01:01:37;;;;;;;19.67;3.13;;;15.40;99.90;;;;;;5032261;28;20384;-66
2022/09/28 01:04:41;;;;;;;17.98;2.95;;;15.80;99.90;;;;;;5031531;28;20040;-66
2022/09/28 01:08:05;;;;;;;25.00;3.45;;;15.80;99.90;;;;;;5031635;28;20384;-65
2022/09/28 01:11:09;;;;;;;19.02;3.10;;;15.70;99.90;;;;;;5031109;28;20048;-66
2022/09/28 01:14:15;;;;;;;20.65;3.95;;;15.50;99.90;;;;;;5031975;28;20048;-66
2022/09/28 01:17:47;;;;;;;17.98;2.83;;;15.50;99.90;;;;;;5031267;28;20523;-66
2022/09/28 01:21:13;;;;;;;19.77;2.90;;;15.40;99.90;;;;;;5031134;28;20404;-66
2022/09/28 01:24:43;;;;;;;16.63;2.90;;;15.30;99.90;;;;;;5031107;28;20044;-66
2022/09/28 01:28:14;;;;;;;22.92;3.30;;;15.20;99.90;;;;;;5031123;28;20048;-66
2022/09/28 01:31:40;;;;;;;12.37;3.13;;;14.90;99.90;;;;;;5031531;28;20044;-66
2022/09/28 01:38:30;;;;;;;23.13;3.60;;;14.70;99.90;;;;;;5031254;28;20041;-66
2022/09/28 01:41:39;;;;;;;17.38;3.72;;;14.50;99.90;;;;;;5030802;28;20060;-66
2022/09/28 01:45:03;;;;;;;25.40;3.65;;;14.40;99.90;;;;;;5030299;28;20044;-66
2022/09/28 01:48:10;;;;;;;29.00;3.15;;;14.40;99.90;;;;;;5031570;28;20499;-66
2022/09/28 01:51:37;;;;;;;23.02;3.17;;;14.50;99.90;;;;;;5030238;28;20052;-66
2022/09/28 02:02:39;;;;;;;26.08;4.90;;;14.60;99.90;;;;;;5031204;28;20044;-66
2022/09/28 02:09:46;;;;;;;17.60;2.72;;;14.90;99.90;;;;;;5030128;28;20040;-66
2022/09/28 02:13:15;;;;;;;22.42;3.50;;;14.90;99.90;;;;;;5030189;28;20460;-66
2022/09/28 02:16:35;;;;;;;26.10;3.80;;;15.00;99.90;;;;;;5030247;28;20048;-66
2022/09/28 02:19:59;;;;;;;25.92;3.35;;;15.10;99.90;;;;;;5030657;28;20033;-66
2022/09/28 02:23:25;;;;;;;19.08;2.85;;;15.30;99.90;;;;;;5029811;28;20053;-66
2022/09/28 02:26:34;;;;;;;21.40;3.72;;;15.40;99.90;;;;;;5030158;28;20040;-66
2022/09/28 02:30:17;;;;;;;30.08;3.40;;;15.40;99.90;;;;;;5029986;28;20040;-66
2022/09/28 02:33:32;;;;;;;14.75;3.60;;;15.40;99.90;;;;;;5029243;28;20507;-65
2022/09/28 02:36:55;;;;;;;20.30;3.03;;;15.40;99.90;;;;;;5031032;28;20048;-66
2022/09/28 02:40:23;;;;;;;25.15;3.85;;;15.50;99.90;;;;;;5030602;28;20052;-65
2022/09/28 02:43:46;;;;;;;18.75;3.22;;;15.40;99.90;;;;;;5029163;28;20057;-66
2022/09/28 02:46:59;;;;;;;;;;;15.40;99.90;;;;;;5029945;28;20432;-66
2022/09/28 02:50:32;;;;;;;30.00;4.03;;;15.50;99.90;;;;;;5030308;28;19917;-66
2022/09/28 02:54:05;;;;;;;23.42;3.63;;;15.50;99.90;;;;;;5028797;28;20436;-66
2022/09/28 02:57:29;;;;;;;23.95;4.20;;;15.60;99.90;;;;;;5030039;28;20048;-66
2022/09/28 03:00:53;;;;;;;16.30;3.20;;;15.70;99.90;;;;;;5029656;28;20052;-66
2022/09/28 03:04:20;;;;;;;16.10;3.28;;;15.80;99.90;;;;;;5029132;28;20516;-66
2022/09/28 03:08:05;;;;;;;13.88;3.00;;;15.80;99.90;;;;;;5029276;28;20053;-65
2022/09/28 03:11:41;;;;;;;15.13;3.83;;;15.80;99.90;;;;;;5029673;28;20052;-65
2022/09/28 03:18:45;;;;;;;21.80;4.53;;;15.30;99.90;;;;;;5029139;28;20052;-66
2022/09/28 03:21:49;;;;;;;26.63;4.78;;;15.20;99.90;;;;;;5029273;28;20045;-65
2022/09/28 03:24:53;;;;;;;23.95;3.53;;;15.20;99.90;;;;;;5029789;28;20060;-66
2022/09/28 03:28:16;;;;;;;26.08;2.90;;;15.30;99.90;;;;;;5029971;28;20049;-66
2022/09/28 03:31:20;;;;;;;25.27;5.15;;;15.40;99.90;;;;;;5029423;28;20511;-65
2022/09/28 03:34:24;;;;;;;30.40;4.45;;;15.40;99.90;;;;;;5029572;28;20487;-66
2022/09/28 03:37:29;;;;;;;29.65;4.95;;;15.10;99.90;;;;;;5029221;28;20052;-65
2022/09/28 03:40:32;;;;;;;25.85;5.40;;;14.60;99.90;;;;;;5029170;28;20056;-65
2022/09/28 03:43:55;;;;;;;27.08;4.95;;;14.10;99.90;;;;;;5028633;28;20053;-66
2022/09/28 03:47:20;;;;;;;21.85;4.82;;;14.10;99.90;;;;;;5032810;28;20392;-66
2022/09/28 03:50:24;;;;;;;19.50;4.72;;;13.90;99.90;;;;;;5033073;28;20044;-65
2022/09/28 03:53:29;;;;;;;19.13;5.15;;;14.10;99.90;;;;;;5032705;28;20057;-66
2022/09/28 03:56:34;;;;;;;19.17;4.32;;;14.20;99.90;;;;;;5033049;28;20503;-66
2022/09/28 03:59:38;;;;;;;23.45;5.13;;;14.20;99.90;;;;;;5033632;28;20036;-66
2022/09/28 04:02:42;;;;;;;15.57;4.45;;;14.20;99.90;;;;;;5032513;28;20068;-66
2022/09/28 04:05:51;;;;;;;24.17;5.00;;;14.20;99.90;;;;;;5033610;28;20400;-66
2022/09/28 04:09:15;;;;;;;20.98;4.57;;;14.20;99.90;;;;;;5032488;28;20044;-66
2022/09/28 04:12:38;;;;;;;25.25;5.65;;;14.20;99.90;;;;;;5032588;28;20045;-65
2022/09/28 04:19:34;;;;;;;22.27;6.35;;;13.60;99.90;;;;;;5032414;28;20052;-65
2022/09/28 04:22:57;;;;;;;;;;;13.50;99.90;;;;;;5033608;28;20048;-65
2022/09/28 04:26:06;;;;;;;18.92;5.50;;;13.40;99.90;;;;;;5032486;28;19984;-65
2022/09/28 04:29:30;;;;;;;27.95;5.65;;;13.40;99.90;;;;;;5032359;28;20045;-66
2022/09/28 04:32:35;;;;;;;15.82;5.38;;;13.50;99.90;;;;;;5029364;28;20057;-66
2022/09/28 04:35:40;;;;;;;20.90;5.93;;;13.50;99.90;;;;;;5032589;28;20049;-65
2022/09/28 04:38:44;;;;;;;18.83;5.50;;;13.40;99.90;;;;;;5032670;28;20389;-66
2022/09/28 04:42:27;;;;;;;27.17;6.30;;;13.30;99.90;;;;;;5031844;28;20053;-65
2022/09/28 04:45:31;;;;;;;27.33;6.95;;;13.50;99.90;;;;;;5032622;28;20408;-65
2022/09/28 04:48:41;;;;;;;29.85;6.50;;;13.50;99.90;;;;;;5032530;28;20041;-65
2022/09/28 04:55:37;;;;;;;17.50;5.23;;;13.50;99.90;;;;;;5032235;28;20052;-66
2022/09/28 04:58:43;;;;;;;25.15;6.00;;;13.60;99.90;;;;;;5032171;28;20052;-66
2022/09/28 05:01:48;;;;;;;26.25;6.82;;;13.60;99.90;;;;;;5031869;28;20049;-66
2022/09/28 05:05:02;;;;;;;21.30;5.72;;;13.60;99.90;;;;;;5033080;28;20407;-65
2022/09/28 05:12:08;;;;;;;32.35;5.70;;;13.60;99.90;;;;;;5032017;28;20523;-66
2022/09/28 05:15:12;;;;;;;33.15;5.65;;;13.70;99.90;;;;;;5031831;28;20045;-65
2022/09/28 05:18:16;;;;;;;24.25;5.70;;;13.70;99.90;;;;;;5032191;28;20506;-66
2022/09/28 05:21:54;;;;;;;25.70;5.35;;;13.70;99.90;;;;;;5032101;28;20546;-65
2022/09/28 05:24:59;;;;;;;22.75;4.93;;;13.80;99.90;;;;;;5031139;28;20040;-66
2022/09/28 05:28:07;;;;;;;21.55;5.03;;;13.80;99.90;;;;;;5032012;28;20060;-66
2022/09/28 05:31:34;;;;;;;20.35;4.80;;;13.90;99.90;;;;;;5032417;28;20045;-66
2022/09/28 05:35:10;;;;;;;31.98;5.93;;;13.90;99.90;;;;;;5030111;28;20053;-66
2022/09/28 05:41:40;;;;;;;;;;;13.60;99.90;;;;;;5031122;28;20495;-66
2022/09/28 05:44:44;;;;;;;19.92;4.88;;;13.50;99.90;;;;;;5030474;28;19913;-65
2022/09/28 05:47:49;;;;;;;22.98;4.82;;;13.40;99.90;;;;;;5031058;28;20049;-65
2022/09/28 05:51:00;;;;;;;22.70;4.75;;;13.60;99.90;;;;;;5030599;28;20048;-65
2022/09/28 05:54:04;;;;;;;22.50;4.72;;;13.50;99.90;;;;;;5030462;28;20496;-65
2022/09/28 05:57:08;;;;;;;21.38;4.50;;;13.60;99.90;;;;;;5030433;28;20042;-65
2022/09/28 06:00:33;;;;;;;21.45;4.72;;;13.50;99.90;;;;;;5024818;28;20048;-65
2022/09/28 06:03:56;;;;;;;19.02;4.82;;;13.50;99.90;;;;;;5025707;28;20424;-65
2022/09/28 06:07:19;;;;;;;30.83;5.75;;;13.50;99.90;;;;;;5028736;28;20052;-66
2022/09/28 06:10:42;;;;;;;21.80;5.05;;;13.50;99.90;;;;;;5028756;28;20488;-66
2022/09/28 06:13:51;;;;;;;29.35;4.88;;;13.60;99.90;;;;;;5027322;28;20045;-65
2022/09/28 06:16:55;;;;;;;22.77;4.68;;;13.70;99.90;;;;;;5029544;28;20036;-65
2022/09/28 06:20:00;;;;;;;17.15;3.72;;;13.80;99.90;;;;;;5030196;28;20052;-65
2022/09/28 06:23:24;;;;;;;20.80;3.63;;;14.00;99.90;;;;;;5024913;28;20049;-65
2022/09/28 06:26:46;;;;;;;31.02;3.92;;;14.20;99.90;;;;;;5024353;28;20044;-65
2022/09/28 06:29:51;;;;;;;28.00;4.57;;;14.20;99.90;;;;;;5024833;28;20037;-66
2022/09/28 06:33:15;;;;;;;18.33;4.20;;;14.10;99.90;;;;;;5031327;28;20036;-65
2022/09/28 06:36:39;;;;;;;17.75;4.22;;;14.30;99.90;;;;;;5020823;28;20409;-66
2022/09/28 06:39:43;;;;;;;16.58;4.05;;;14.30;99.90;;;;;;5012867;28;20053;-66
2022/09/28 06:42:58;;;;;;;24.73;5.47;;;14.40;99.90;;;;;;5022563;28;20045;-66
2022/09/28 06:46:20;;;;;;;17.10;3.85;;;14.40;99.90;;;;;;5031108;28;20056;-66
2022/09/28 06:49:29;;;;;;;19.67;4.47;;;14.40;99.90;;;;;;5024195;28;20060;-66
2022/09/28 06:52:53;;;;;;;13.68;3.63;;;14.80;99.90;;;;;;5028759;28;20041;-66
2022/09/28 06:56:35;;;;;;;20.55;4.30;;;14.50;99.90;;;;;;5024804;28;20440;-66
2022/09/28 06:59:40;;;;;;;13.05;4.30;;;14.60;99.90;;;;;;5026504;28;20495;-66
2022/09/28 07:02:45;;;;;;;22.00;4.88;;;14.60;99.90;;;;;;5025608;28;20130;-66
2022/09/28 07:06:11;;;;;;;17.45;3.78;;;14.40;99.90;;;;;;5027061;28;20053;-66
2022/09/28 07:09:38;;;;;;;16.42;5.15;;;14.50;99.90;;;;;;5028713;28;20048;-66
2022/09/28 07:12:46;;;;;;;16.25;4.25;;;14.40;99.90;;;;;;5026132;28;20048;-66
2022/09/28 07:16:38;;;;;;;19.25;4.18;;;14.50;99.90;;;;;;5010853;28;20488;-65
2022/09/28 07:19:43;;;;;;;17.55;3.95;;;14.60;99.90;;;;;;5028389;28;20056;-66
2022/09/28 07:23:01;;;;;;;16.52;3.85;;;14.60;99.90;;;;;;5025418;28;20049;-66
2022/09/28 07:26:09;;;;;;;;;;;14.60;99.90;;;;;;5023766;28;20052;-66
2022/09/28 07:29:27;;;;;;;12.65;4.32;;;14.70;99.90;;;;;;5028652;28;19917;-65
2022/09/28 07:32:59;;;;;;;15.98;4.13;;;14.70;99.90;;;;;;5024440;28;20032;-66
2022/09/28 07:36:16;;;;;;;18.40;4.43;;;14.90;99.90;;;;;;5022377;28;20617;-66
2022/09/28 07:43:09;;;;;;;18.02;4.43;;;15.20;99.90;;;;;;5019522;28;20049;-66
2022/09/28 07:49:41;;;;;;;17.05;4.13;;;15.00;99.90;;;;;;5026248;28;20044;-66
2022/09/28 07:52:56;;;;;;;11.40;4.40;;;15.10;99.90;;;;;;5028424;28;20040;-66
2022/09/28 07:56:12;;;;;;;15.88;4.20;;;15.20;99.90;;;;;;5023117;28;20044;-66
2022/09/28 07:59:59;;;;;;;25.58;10.15;;;15.40;99.90;;;;;;5027500;28;20274;-66
2022/09/28 08:03:46;;;;;;;56.92;20.35;;;15.30;99.90;;;;;;5022537;28;20381;-66
2022/09/28 08:10:33;;;;;;;28.55;9.65;;;15.20;99.90;;;;;;5030303;28;20508;-66
2022/09/28 08:13:55;;;;;;;27.63;7.70;;;15.50;99.90;;;;;;5026773;28;20045;-66
2022/09/28 08:24:29;;;;;;;21.65;5.32;;;15.90;99.90;;;;;;5024859;28;20057;-66
2022/09/28 08:27:55;;;;;;;22.48;5.40;;;16.00;99.90;;;;;;5026365;28;20511;-66
2022/09/28 08:31:02;;;;;;;22.23;6.40;;;15.90;99.90;;;;;;5025910;28;20061;-65
2022/09/28 08:34:09;;;;;;;21.38;7.57;;;15.60;99.90;;;;;;5030538;28;20388;-66
2022/09/28 08:37:36;;;;;;;25.30;8.18;;;16.00;99.90;;;;;;5029356;28;20124;-66
2022/09/28 08:46:12;;;;;;;26.98;7.13;;;16.30;99.90;;;;;;5033818;28;20517;-66
2022/09/28 08:49:50;;;;;;;21.02;4.95;;;16.60;99.90;;;;;;5034528;28;20041;-65
2022/09/28 08:53:48;;;;;;;17.77;4.18;;;16.80;99.90;;;;;;5022959;28;20498;-66
2022/09/28 08:57:02;;;;;;;17.33;4.40;;;17.10;99.90;;;;;;5023703;28;20037;-66
2022/09/28 09:00:39;;;;;;;23.50;5.45;;;17.00;99.90;;;;;;5023236;28;20048;-66
2022/09/28 09:03:45;;;;;;;28.85;5.50;;;16.30;99.90;;;;;;5024897;28;20069;-66
2022/09/28 09:07:38;;;;;;;18.83;5.28;;;16.30;99.90;;;;;;5024711;28;20041;-66
2022/09/28 09:11:05;;;;;;;30.08;4.45;;;16.50;99.90;;;;;;5021818;28;20499;-66
2022/09/28 09:14:43;;;;;;;19.83;3.55;;;16.00;99.90;;;;;;5025596;28;20048;-66
2022/09/28 09:18:00;;;;;;;21.63;4.93;;;15.90;99.90;;;;;;5024162;28;20236;-66
2022/09/28 09:25:27;;;;;;;21.48;4.93;;;16.20;99.90;;;;;;5030800;28;20049;-66
2022/09/28 09:32:54;;;;;;;22.50;4.47;;;16.80;99.90;;;;;;5041001;28;20060;-66
2022/09/28 09:36:46;;;;;;;20.77;4.30;;;17.10;99.90;;;;;;5031896;28;20044;-66
2022/09/28 09:41:01;;;;;;;15.93;4.10;;;17.30;99.90;;;;;;5032093;28;20052;-66
2022/09/28 09:45:05;;;;;;;21.98;4.35;;;17.50;99.90;;;;;;5008526;28;20045;-66
2022/09/28 09:48:56;;;;;;;18.25;4.15;;;18.00;99.90;;;;;;5025488;28;20060;-66
2022/09/28 09:52:01;;;;;;;;;;;18.60;99.90;;;;;;5029727;28;20844;-66
2022/09/28 09:55:23;;;;;;;19.08;4.43;;;19.10;99.90;;;;;;5025321;28;19928;-66
2022/09/28 09:59:00;;;;;;;18.15;4.63;;;19.20;99.90;;;;;;5026054;28;20049;-66
2022/09/28 10:02:28;;;;;;;21.92;4.43;;;19.30;99.90;;;;;;5040913;28;20104;-66
2022/09/28 10:05:47;;;;;;;20.25;4.57;;;19.20;99.90;;;;;;5025026;28;20036;-66
2022/09/28 10:12:24;;;;;;;14.43;3.97;;;19.10;99.90;;;;;;5030383;28;20052;-67
2022/09/28 10:15:31;;;;;;;20.40;4.55;;;19.00;99.90;;;;;;5029510;28;20056;-66
2022/09/28 10:19:04;;;;;;;19.17;4.10;;;19.10;99.90;;;;;;5029812;28;20048;-66
2022/09/28 10:30:08;;;;;;;20.85;5.25;;;20.70;99.90;;;;;;5025750;28;20037;-67
2022/09/28 10:33:31;;;;;;;16.15;4.47;;;20.70;99.90;;;;;;5030273;28;20044;-67
2022/09/28 10:37:04;;;;;;;22.02;5.75;;;19.50;99.90;;;;;;5026949;28;20064;-67
2022/09/28 10:40:31;;;;;;;22.85;5.60;;;19.90;99.90;;;;;;5026986;28;20049;-67
2022/09/28 10:43:47;;;;;;;19.25;4.85;;;20.80;99.90;;;;;;5023638;28;20058;-66
2022/09/28 10:47:00;;;;;;;17.30;4.50;;;21.40;99.90;;;;;;5017081;28;20415;-67
2022/09/28 10:50:20;;;;;;;11.70;3.75;;;22.80;99.90;;;;;;5014324;28;20048;-67
2022/09/28 10:53:25;;;;;;;25.77;4.20;;;24.70;99.90;;;;;;5028338;28;20036;-66
2022/09/28 10:57:25;;;;;;;17.60;3.72;;;24.00;99.90;;;;;;5023820;28;20053;-66
2022/09/28 11:00:58;;;;;;;17.02;3.22;;;22.40;99.90;;;;;;5017086;28;20053;-65
2022/09/28 11:04:06;;;;;;;19.50;3.53;;;22.40;99.90;;;;;;5023033;28;20044;-66
2022/09/28 11:07:24;;;;;;;15.32;3.40;;;22.60;99.90;;;;;;5028156;28;20037;-66
2022/09/28 11:17:31;;;;;;;18.90;3.95;;;21.80;99.90;;;;;;5029495;28;20053;-66
2022/09/28 11:20:37;;;;;;;15.85;3.22;;;20.70;99.90;;;;;;5027894;28;20924;-65
2022/09/28 11:27:30;;;;;;;21.95;3.80;;;19.60;99.90;;;;;;5040850;28;20384;-66
2022/09/28 11:30:53;;;;;;;16.10;2.97;;;19.30;99.90;;;;;;5028654;28;20041;-65
2022/09/28 11:34:47;;;;;;;22.25;3.47;;;19.20;99.90;;;;;;5018164;28;20049;-65
2022/09/28 11:38:37;;;;;;;19.95;3.55;;;19.00;99.90;;;;;;5036197;28;20105;-65
2022/09/28 11:42:28;;;;;;;16.92;3.60;;;18.90;99.90;;;;;;5032416;28;20053;-66
2022/09/28 11:45:54;;;;;;;23.23;10.18;;;18.80;99.90;;;;;;5027569;28;20041;-66
2022/09/28 11:49:45;;;;;;;18.30;7.18;;;18.70;99.90;;;;;;5023676;28;20385;-65
2022/09/28 11:53:17;;;;;;;18.05;3.92;;;18.60;99.90;;;;;;5035823;28;20044;-67
2022/09/28 11:57:03;;;;;;;14.93;3.17;;;18.70;99.90;;;;;;5028437;28;20037;-66
2022/09/28 12:00:32;;;;;;;25.58;4.28;;;18.80;99.90;;;;;;5023267;28;20372;-67
2022/09/28 12:03:47;;;;;;;29.38;4.78;;;18.60;99.90;;;;;;5019724;28;20389;-64
2022/09/28 12:06:58;;;;;;;12.23;2.47;;;18.50;99.90;;;;;;5028437;28;20040;-66
2022/09/28 12:10:07;;;;;;;17.10;3.70;;;18.20;99.90;;;;;;5030124;28;20040;-66
2022/09/28 12:13:32;;;;;;;10.68;2.50;;;18.00;99.90;;;;;;5024695;28;20074;-66
2022/09/28 12:16:59;;;;;;;14.80;3.55;;;18.00;99.90;;;;;;5030537;28;20032;-66
2022/09/28 12:20:21;;;;;;;16.75;3.10;;;17.50;99.90;;;;;;5031952;28;20044;-66
2022/09/28 12:23:45;;;;;;;18.35;3.63;;;16.80;99.90;;;;;;5032151;28;20117;-65
2022/09/28 12:36:27;;;;;;;21.10;4.07;;;15.60;99.90;;;;;;5013215;28;20041;-66
2022/09/28 12:40:01;;;;;;;17.83;2.95;;;15.50;99.90;;;;;;5025266;28;20052;-66
2022/09/28 12:43:27;;;;;;;18.55;5.68;;;15.60;99.90;;;;;;5030361;28;20515;-66
2022/09/28 12:46:57;;;;;;;18.27;5.15;;;15.50;99.90;;;;;;5027654;28;20045;-66
2022/09/28 12:50:36;;;;;;;25.33;7.50;;;15.40;99.90;;;;;;5030607;28;20410;-67
2022/09/28 12:54:02;;;;;;;23.02;9.15;;;15.50;99.90;;;;;;5027566;28;20496;-68
2022/09/28 12:57:30;;;;;;;19.70;3.72;;;15.60;99.90;;;;;;5027197;28;20043;-67
2022/09/28 13:00:48;;;;;;;17.13;3.72;;;15.50;99.90;;;;;;5028899;28;20057;-67
2022/09/28 13:04:48;;;;;;;15.48;3.22;;;15.50;99.90;;;;;;5031861;28;20064;-67
2022/09/28 13:08:22;;;;;;;21.63;2.90;;;15.50;99.90;;;;;;5029938;28;20048;-67
2022/09/28 13:11:44;;;;;;;16.27;3.13;;;15.40;99.90;;;;;;5030700;28;20053;-68
2022/09/28 13:15:26;;;;;;;20.75;3.30;;;15.40;99.90;;;;;;5026091;28;20480;-68
2022/09/28 13:18:41;;;;;;;12.88;2.97;;;15.40;99.90;;;;;;5024873;28;20388;-68
2022/09/28 13:22:35;;;;;;;16.98;3.60;;;15.50;99.90;;;;;;5028506;28;20036;-68
2022/09/28 13:26:25;;;;;;;17.02;3.25;;;15.50;99.90;;;;;;5025128;28;20048;-67
2022/09/28 13:29:30;;;;;;;19.58;3.63;;;15.60;99.90;;;;;;5031488;28;20049;-68
2022/09/28 13:32:37;;;;;;;12.85;2.60;;;15.60;99.90;;;;;;5029331;28;20048;-68
2022/09/28 13:35:45;;;;;;;12.13;2.75;;;15.70;99.90;;;;;;5030054;28;20507;-68
2022/09/28 13:39:37;;;;;;;17.38;3.42;;;15.80;99.90;;;;;;5027083;28;20380;-68
2022/09/28 13:43:25;;;;;;;12.18;3.08;;;15.90;99.90;;;;;;5028161;28;20534;-68
2022/09/28 13:50:27;;;;;;;18.52;3.00;;;16.40;99.90;;;;;;5027423;28;20048;-68
2022/09/28 13:57:24;;;;;;;17.65;2.95;;;17.20;99.90;;;;;;5028523;28;20053;-69
2022/09/28 14:00:35;;;;;;;;;;;17.10;99.90;;;;;;5032321;28;20040;-68
2022/09/28 14:04:11;;;;;;;13.63;3.00;;;17.00;99.90;;;;;;5028525;28;20108;-68
2022/09/28 14:07:39;;;;;;;17.25;5.43;;;17.00;99.90;;;;;;5028865;28;20052;-68
2022/09/28 14:10:48;;;;;;;13.55;3.42;;;17.10;99.90;;;;;;5029598;28;20049;-66
2022/09/28 14:14:12;;;;;;;12.02;2.72;;;17.40;99.90;;;;;;5023433;28;20032;-67
2022/09/28 14:17:22;;;;;;;15.60;3.67;;;17.50;99.90;;;;;;5031101;28;20048;-68
2022/09/28 14:20:47;;;;;;;16.40;2.83;;;17.50;99.90;;;;;;5028272;28;20068;-68
2022/09/28 14:24:43;;;;;;;12.45;3.13;;;17.50;99.90;;;;;;5027153;28;20080;-67
2022/09/28 14:28:15;;;;;;;46.80;21.92;;;17.50;99.90;;;;;;5028224;28;20061;-68
2022/09/28 14:31:29;;;;;;;26.45;3.42;;;17.50;99.90;;;;;;5019543;28;20060;-67
2022/09/28 14:34:59;;;;;;;16.60;4.03;;;17.40;99.90;;;;;;5024213;28;20060;-66
2022/09/28 14:42:06;;;;;;;24.48;4.68;;;17.20;99.90;;;;;;5029766;28;20048;-67
2022/09/28 14:45:11;;;;;;;16.58;3.72;;;17.20;99.90;;;;;;5028279;28;20040;-67
2022/09/28 14:48:20;;;;;;;20.42;6.22;;;16.80;99.90;;;;;;5027923;28;20044;-66
2022/09/28 14:51:31;;;;;;;34.40;11.95;;;16.60;99.90;;;;;;5025260;28;20040;-67
2022/09/28 14:54:56;;;;;;;43.30;17.30;;;16.50;99.90;;;;;;5027162;28;20048;-66
2022/09/28 14:58:03;;;;;;;36.78;11.20;;;16.50;99.90;;;;;;5024480;28;20259;-66
2022/09/28 15:01:26;;;;;;;18.25;4.38;;;16.30;99.90;;;;;;5027455;28;20048;-66
2022/09/28 15:04:51;;;;;;;18.75;3.60;;;16.30;99.90;;;;;;5029338;28;20044;-68
2022/09/28 15:07:56;;;;;;;14.52;4.25;;;16.30;99.90;;;;;;5027284;28;20422;-68
2022/09/28 15:11:00;;;;;;;15.93;4.78;;;16.30;99.90;;;;;;5021800;28;20048;-67
2022/09/28 15:14:07;;;;;;;18.95;4.80;;;16.20;99.90;;;;;;5026613;28;20512;-67
2022/09/28 15:31:27;;;;;;;18.27;3.75;;;16.20;99.90;;;;;;5027572;28;20110;-67
2022/09/28 15:37:58;;;;;;;26.17;7.88;;;16.50;99.90;;;;;;5028416;28;20048;-68
2022/09/28 15:44:35;;;;;;;19.13;4.20;;;16.60;99.90;;;;;;5031084;28;20057;-67
2022/09/28 15:47:44;;;;;;;32.65;6.15;;;16.70;99.90;;;;;;5029901;28;20404;-68
2022/09/28 15:51:02;;;;;;;25.77;11.35;;;16.80;99.90;;;;;;5031790;28;20049;-67
2022/09/28 15:54:08;;;;;;;17.02;4.15;;;16.80;99.90;;;;;;5032328;28;20045;-67
2022/09/28 15:57:31;;;;;;;19.00;9.85;;;16.90;99.90;;;;;;5031922;28;20685;-67
2022/09/28 16:00:35;;;;;;;10.70;2.80;;;17.00;99.90;;;;;;5025731;28;20667;-68
2022/09/28 16:03:39;;;;;;;37.15;19.85;;;17.30;99.90;;;;;;5032383;28;20483;-68
2022/09/28 16:10:34;;;;;;;15.10;2.97;;;17.60;99.90;;;;;;5033213;28;20041;-67
2022/09/28 16:14:25;;;;;;;10.75;2.85;;;17.70;99.90;;;;;;5032638;28;20044;-68
2022/09/28 16:17:32;;;;;;;10.77;3.45;;;17.70;99.90;;;;;;5033579;28;20044;-67
2022/09/28 16:20:41;;;;;;;13.93;2.67;;;17.50;99.90;;;;;;5033281;28;20387;-68
2022/09/28 16:23:50;;;;;;;25.50;11.25;;;17.30;99.90;;;;;;5032852;28;20424;-68
2022/09/28 16:27:07;;;;;;;13.40;5.28;;;17.20;99.90;;;;;;5032479;28;20045;-67
2022/09/28 16:33:54;;;;;;;55.33;27.00;;;17.20;99.90;;;;;;5032397;28;20051;-67
2022/09/28 16:37:18;;;;;;;14.80;6.32;;;17.20;99.90;;;;;;5032890;28;20040;-67
2022/09/28 16:40:22;;;;;;;41.88;18.30;;;17.20;99.90;;;;;;5033041;28;20504;-67
2022/09/28 16:43:31;;;;;;;18.52;5.60;;;17.30;99.90;;;;;;5032339;28;20040;-68
2022/09/28 16:46:56;;;;;;;20.38;3.92;;;17.00;99.90;;;;;;5032470;28;20490;-67
2022/09/28 16:50:05;;;;;;;20.00;5.13;;;16.80;99.90;;;;;;5032891;28;20647;-67
2022/09/28 16:56:38;;;;;;;11.85;3.67;;;16.60;99.90;;;;;;5032933;28;20056;-67
2022/09/28 17:00:00;;;;;;;14.23;2.80;;;16.60;99.90;;;;;;5032433;28;20048;-67
2022/09/28 17:03:14;;;;;;;14.45;3.33;;;16.60;99.90;;;;;;5032692;28;20052;-67
2022/09/28 17:06:23;;;;;;;17.52;3.88;;;16.50;99.90;;;;;;5033116;28;20392;-67
2022/09/28 17:09:28;;;;;;;13.27;3.05;;;16.50;99.90;;;;;;5032707;28;20124;-67
2022/09/28 17:12:34;;;;;;;16.70;3.08;;;16.40;99.90;;;;;;5032444;28;20052;-67
2022/09/28 17:15:39;;;;;;;14.63;2.90;;;16.40;99.90;;;;;;5032286;28;20045;-67
2022/09/28 17:18:44;;;;;;;15.18;3.40;;;16.30;99.90;;;;;;5032182;28;20048;-67
2022/09/28 17:22:08;;;;;;;13.02;3.65;;;16.30;99.90;;;;;;5031975;28;20060;-67
2022/09/28 17:25:31;;;;;;;18.33;5.55;;;16.20;99.90;;;;;;5031495;28;20052;-67
2022/09/28 17:28:53;;;;;;;31.17;10.18;;;16.20;99.90;;;;;;5031890;28;20052;-67
2022/09/28 17:32:16;;;;;;;18.90;6.13;;;16.20;99.90;;;;;;5031499;28;20048;-67
2022/09/28 17:35:20;;;;;;;15.05;4.07;;;16.30;99.90;;;;;;5031442;28;20527;-67
2022/09/28 17:38:24;;;;;;;18.30;3.67;;;16.40;99.90;;;;;;5032018;28;20052;-67
2022/09/28 17:41:46;;;;;;;17.27;4.85;;;16.40;99.90;;;;;;5031855;28;20053;-67
2022/09/28 17:44:51;;;;;;;21.17;8.65;;;16.40;99.90;;;;;;5031308;28;20388;-67
2022/09/28 17:47:54;;;;;;;16.60;2.78;;;16.50;99.90;;;;;;5031892;28;20131;-67
2022/09/28 17:51:00;;;;;;;16.65;3.05;;;16.50;99.90;;;;;;5031309;28;20060;-66
2022/09/28 17:54:05;;;;;;;19.63;4.65;;;16.60;99.90;;;;;;5031127;28;20500;-67
2022/09/28 17:57:09;;;;;;;14.45;3.28;;;16.60;99.90;;;;;;5031981;28;20052;-67
2022/09/28 18:00:14;;;;;;;21.75;5.35;;;16.70;99.90;;;;;;5031435;28;20041;-67
2022/09/28 18:03:38;;;;;;;15.27;5.25;;;16.80;99.90;;;;;;5031067;28;20049;-67
2022/09/28 18:06:42;;;;;;;16.40;2.97;;;16.50;99.90;;;;;;5031344;28;20044;-67
2022/09/28 18:09:46;;;;;;;19.33;4.05;;;16.80;99.90;;;;;;5031130;28;20053;-67
2022/09/28 18:13:09;;;;;;;10.52;2.47;;;16.80;99.90;;;;;;5031136;28;20048;-67
2022/09/28 18:16:14;;;;;;;18.60;3.28;;;16.80;99.90;;;;;;5031166;28;20072;-68
2022/09/28 18:19:18;;;;;;;18.08;3.40;;;16.80;99.90;;;;;;5030409;28;20048;-67
2022/09/28 18:22:22;;;;;;;16.40;4.28;;;16.70;99.90;;;;;;5031198;28;20052;-67
2022/09/28 18:25:29;;;;;;;15.95;4.13;;;16.70;99.90;;;;;;5030319;28;20045;-67
2022/09/28 18:28:33;;;;;;;16.88;3.05;;;16.60;99.90;;;;;;5030986;28;20048;-68
2022/09/28 18:31:37;;;;;;;10.32;3.45;;;16.60;99.90;;;;;;5031405;28;20389;-67
2022/09/28 18:35:00;;;;;;;21.40;3.42;;;16.60;99.90;;;;;;5029793;28;20261;-67
2022/09/28 18:38:05;;;;;;;17.42;3.70;;;16.50;99.90;;;;;;5030810;28;20060;-67
2022/09/28 18:44:34;;;;;;;22.05;3.67;;;16.40;99.90;;;;;;5029763;28;20044;-67
2022/09/28 18:47:38;;;;;;;20.70;3.70;;;16.40;99.90;;;;;;5030739;28;20036;-67
2022/09/28 18:50:43;;;;;;;15.57;3.78;;;16.30;99.90;;;;;;5030427;28;20052;-63
2022/09/28 18:53:48;;;;;;;14.15;3.20;;;16.40;99.90;;;;;;5029569;28;20041;-64
2022/09/28 18:56:56;;;;;;;18.15;3.15;;;16.40;99.90;;;;;;5029983;28;20036;-63
2022/09/28 19:03:25;;;;;;;22.23;3.17;;;16.50;99.90;;;;;;5030194;28;20507;-63
2022/09/28 19:06:30;;;;;;;23.00;4.05;;;16.70;99.90;;;;;;5030177;28;20400;-63
2022/09/28 19:09:34;;;;;;;16.45;2.88;;;16.60;99.90;;;;;;5030347;28;20048;-63
2022/09/28 19:12:38;;;;;;;14.52;2.55;;;16.60;99.90;;;;;;5030272;28;20048;-63
2022/09/28 19:15:42;;;;;;;19.05;3.42;;;16.70;99.90;;;;;;5029397;28;20056;-63
2022/09/28 19:18:47;;;;;;;9.40;2.65;;;16.70;99.90;;;;;;5030157;28;20052;-63
2022/09/28 19:22:11;;;;;;;14.80;3.55;;;16.70;99.90;;;;;;5030262;28;20388;-63
2022/09/28 19:25:15;;;;;;;11.75;2.42;;;16.70;99.90;;;;;;5029548;28;20503;-63
2022/09/28 19:28:19;;;;;;;13.35;2.40;;;16.70;99.90;;;;;;5030239;28;20048;-63